sensor_id;sensor_type;location;lat;lon;timestamp;P1;durP1;ratioP1;P2;durP2;ratioP2
52962;SDS011;38827;53.024;6.596;2022-11-23T00:06:04;16.92;;;10.52;;
52962;SDS011;38827;53.024;6.596;2022-11-23T00:21:28;15.88;;;10.93;;
52962;SDS011;38827;53.024;6.596;2022-11-23T00:24:57;14.63;;;11.30;;
52962;SDS011;38827;53.024;6.596;2022-11-23T00:33:30;17.60;;;11.57;;
52962;SDS011;38827;53.024;6.596;2022-11-23T00:41:38;15.05;;;11.52;;
52962;SDS011;38827;53.024;6.596;2022-11-23T00:44:04;20.10;;;11.25;;
52962;SDS011;38827;53.024;6.596;2022-11-23T00:46:49;16.13;;;10.32;;
52962;SDS011;38827;53.024;6.596;2022-11-23T00:56:00;17.67;;;10.77;;
52962;SDS011;38827;53.024;6.596;2022-11-23T00:58:57;18.40;;;11.30;;
52962;SDS011;38827;53.024;6.596;2022-11-23T01:07:27;17.80;;;10.57;;
52962;SDS011;38827;53.024;6.596;2022-11-23T01:13:35;15.68;;;10.77;;
52962;SDS011;38827;53.024;6.596;2022-11-23T01:19:19;14.88;;;10.32;;
52962;SDS011;38827;53.024;6.596;2022-11-23T01:21:47;16.05;;;10.82;;
52962;SDS011;38827;53.024;6.596;2022-11-23T01:24:22;19.35;;;10.00;;
52962;SDS011;38827;53.024;6.596;2022-11-23T01:29:47;18.90;;;11.63;;
52962;SDS011;38827;53.024;6.596;2022-11-23T01:32:12;16.33;;;9.63;;
52962;SDS011;38827;53.024;6.596;2022-11-23T01:34:38;13.60;;;10.50;;
52962;SDS011;38827;53.024;6.596;2022-11-23T01:37:04;16.85;;;10.50;;
52962;SDS011;38827;53.024;6.596;2022-11-23T01:39:30;14.75;;;10.02;;
52962;SDS011;38827;53.024;6.596;2022-11-23T01:41:56;15.70;;;10.20;;
52962;SDS011;38827;53.024;6.596;2022-11-23T01:46:52;16.63;;;11.27;;
52962;SDS011;38827;53.024;6.596;2022-11-23T01:49:18;15.67;;;10.50;;
52962;SDS011;38827;53.024;6.596;2022-11-23T01:51:45;20.63;;;11.80;;
52962;SDS011;38827;53.024;6.596;2022-11-23T01:54:15;18.75;;;11.30;;
52962;SDS011;38827;53.024;6.596;2022-11-23T01:56:47;16.90;;;11.30;;
52962;SDS011;38827;53.024;6.596;2022-11-23T01:59:19;16.52;;;11.10;;
52962;SDS011;38827;53.024;6.596;2022-11-23T02:01:46;19.83;;;11.68;;
52962;SDS011;38827;53.024;6.596;2022-11-23T02:04:13;17.23;;;11.57;;
52962;SDS011;38827;53.024;6.596;2022-11-23T02:06:46;17.88;;;10.75;;
52962;SDS011;38827;53.024;6.596;2022-11-23T02:09:13;16.20;;;10.90;;
52962;SDS011;38827;53.024;6.596;2022-11-23T02:11:40;20.08;;;11.45;;
52962;SDS011;38827;53.024;6.596;2022-11-23T02:14:05;16.23;;;10.55;;
52962;SDS011;38827;53.024;6.596;2022-11-23T02:16:31;17.65;;;11.30;;
52962;SDS011;38827;53.024;6.596;2022-11-23T02:18:57;19.42;;;11.43;;
52962;SDS011;38827;53.024;6.596;2022-11-23T02:21:24;18.10;;;10.20;;
52962;SDS011;38827;53.024;6.596;2022-11-23T02:24:09;14.23;;;11.35;;
52962;SDS011;38827;53.024;6.596;2022-11-23T02:26:43;18.73;;;11.95;;
52962;SDS011;38827;53.024;6.596;2022-11-23T02:29:10;16.60;;;11.77;;
52962;SDS011;38827;53.024;6.596;2022-11-23T02:42:01;15.77;;;11.73;;
52962;SDS011;38827;53.024;6.596;2022-11-23T02:51:29;20.58;;;13.25;;
52962;SDS011;38827;53.024;6.596;2022-11-23T02:54:00;14.90;;;11.45;;
52962;SDS011;38827;53.024;6.596;2022-11-23T02:56:26;16.60;;;11.57;;
52962;SDS011;38827;53.024;6.596;2022-11-23T02:59:10;17.02;;;11.23;;
52962;SDS011;38827;53.024;6.596;2022-11-23T03:01:35;15.32;;;10.07;;
52962;SDS011;38827;53.024;6.596;2022-11-23T03:04:03;16.42;;;11.07;;
52962;SDS011;38827;53.024;6.596;2022-11-23T03:06:29;13.32;;;10.70;;
52962;SDS011;38827;53.024;6.596;2022-11-23T03:08:55;15.48;;;11.05;;
52962;SDS011;38827;53.024;6.596;2022-11-23T03:11:21;16.30;;;11.15;;
52962;SDS011;38827;53.024;6.596;2022-11-23T03:13:50;16.25;;;11.98;;
52962;SDS011;38827;53.024;6.596;2022-11-23T03:16:16;17.98;;;11.95;;
52962;SDS011;38827;53.024;6.596;2022-11-23T03:18:42;17.38;;;12.45;;
52962;SDS011;38827;53.024;6.596;2022-11-23T03:21:07;18.98;;;13.32;;
52962;SDS011;38827;53.024;6.596;2022-11-23T03:23:33;20.38;;;13.40;;
52962;SDS011;38827;53.024;6.596;2022-11-23T03:26:00;19.70;;;12.93;;
52962;SDS011;38827;53.024;6.596;2022-11-23T03:28:25;20.45;;;14.15;;
52962;SDS011;38827;53.024;6.596;2022-11-23T03:30:51;23.17;;;14.23;;
52962;SDS011;38827;53.024;6.596;2022-11-23T03:33:17;22.10;;;14.23;;
52962;SDS011;38827;53.024;6.596;2022-11-23T03:35:43;22.25;;;15.05;;
52962;SDS011;38827;53.024;6.596;2022-11-23T03:38:11;24.77;;;14.75;;
52962;SDS011;38827;53.024;6.596;2022-11-23T03:40:37;19.77;;;12.68;;
52962;SDS011;38827;53.024;6.596;2022-11-23T03:43:03;21.60;;;13.90;;
52962;SDS011;38827;53.024;6.596;2022-11-23T03:45:29;25.33;;;14.43;;
52962;SDS011;38827;53.024;6.596;2022-11-23T03:47:54;26.85;;;15.30;;
52962;SDS011;38827;53.024;6.596;2022-11-23T03:50:20;26.65;;;16.00;;
52962;SDS011;38827;53.024;6.596;2022-11-23T03:52:49;27.67;;;15.88;;
52962;SDS011;38827;53.024;6.596;2022-11-23T03:55:15;30.65;;;15.98;;
52962;SDS011;38827;53.024;6.596;2022-11-23T03:57:40;30.20;;;15.32;;
52962;SDS011;38827;53.024;6.596;2022-11-23T04:00:07;26.95;;;15.50;;
52962;SDS011;38827;53.024;6.596;2022-11-23T04:02:33;23.23;;;15.38;;
52962;SDS011;38827;53.024;6.596;2022-11-23T04:04:59;27.60;;;15.75;;
52962;SDS011;38827;53.024;6.596;2022-11-23T04:07:25;22.98;;;14.65;;
52962;SDS011;38827;53.024;6.596;2022-11-23T04:09:51;26.13;;;15.38;;
52962;SDS011;38827;53.024;6.596;2022-11-23T04:12:17;23.77;;;16.38;;
52962;SDS011;38827;53.024;6.596;2022-11-23T04:14:42;25.15;;;16.15;;
52962;SDS011;38827;53.024;6.596;2022-11-23T04:17:08;28.35;;;17.67;;
52962;SDS011;38827;53.024;6.596;2022-11-23T04:19:34;29.90;;;18.50;;
52962;SDS011;38827;53.024;6.596;2022-11-23T04:21:59;27.08;;;18.25;;
52962;SDS011;38827;53.024;6.596;2022-11-23T04:24:25;26.73;;;17.15;;
52962;SDS011;38827;53.024;6.596;2022-11-23T04:26:51;30.52;;;17.83;;
52962;SDS011;38827;53.024;6.596;2022-11-23T04:29:16;29.85;;;17.90;;
52962;SDS011;38827;53.024;6.596;2022-11-23T04:31:42;25.33;;;17.30;;
52962;SDS011;38827;53.024;6.596;2022-11-23T04:34:08;30.55;;;18.73;;
52962;SDS011;38827;53.024;6.596;2022-11-23T04:36:34;33.17;;;20.27;;
52962;SDS011;38827;53.024;6.596;2022-11-23T04:38:59;31.10;;;19.05;;
52962;SDS011;38827;53.024;6.596;2022-11-23T04:41:27;32.08;;;18.95;;
52962;SDS011;38827;53.024;6.596;2022-11-23T04:43:52;30.40;;;18.25;;
52962;SDS011;38827;53.024;6.596;2022-11-23T04:46:18;31.98;;;19.02;;
52962;SDS011;38827;53.024;6.596;2022-11-23T04:48:45;31.67;;;19.42;;
52962;SDS011;38827;53.024;6.596;2022-11-23T04:51:11;30.50;;;19.17;;
52962;SDS011;38827;53.024;6.596;2022-11-23T04:53:37;32.20;;;19.37;;
52962;SDS011;38827;53.024;6.596;2022-11-23T04:56:03;32.25;;;19.73;;
52962;SDS011;38827;53.024;6.596;2022-11-23T04:58:29;34.13;;;20.33;;
52962;SDS011;38827;53.024;6.596;2022-11-23T05:00:55;31.50;;;19.73;;
52962;SDS011;38827;53.024;6.596;2022-11-23T05:03:21;32.30;;;20.63;;
52962;SDS011;38827;53.024;6.596;2022-11-23T05:05:47;33.53;;;20.50;;
52962;SDS011;38827;53.024;6.596;2022-11-23T05:08:13;32.72;;;20.58;;
52962;SDS011;38827;53.024;6.596;2022-11-23T05:10:38;35.90;;;21.40;;
52962;SDS011;38827;53.024;6.596;2022-11-23T05:13:04;35.92;;;21.17;;
52962;SDS011;38827;53.024;6.596;2022-11-23T05:15:29;31.02;;;19.23;;
52962;SDS011;38827;53.024;6.596;2022-11-23T05:18:04;29.63;;;19.63;;
52962;SDS011;38827;53.024;6.596;2022-11-23T05:20:31;34.50;;;20.17;;
52962;SDS011;38827;53.024;6.596;2022-11-23T05:22:58;31.60;;;19.98;;
52962;SDS011;38827;53.024;6.596;2022-11-23T05:25:24;33.33;;;20.83;;
52962;SDS011;38827;53.024;6.596;2022-11-23T05:27:50;33.15;;;20.35;;
52962;SDS011;38827;53.024;6.596;2022-11-23T05:30:15;36.15;;;21.30;;
52962;SDS011;38827;53.024;6.596;2022-11-23T05:32:41;34.42;;;20.67;;
52962;SDS011;38827;53.024;6.596;2022-11-23T05:35:07;34.28;;;20.55;;
52962;SDS011;38827;53.024;6.596;2022-11-23T05:37:35;32.35;;;18.98;;
52962;SDS011;38827;53.024;6.596;2022-11-23T05:40:00;30.27;;;19.67;;
52962;SDS011;38827;53.024;6.596;2022-11-23T05:42:26;35.70;;;20.95;;
52962;SDS011;38827;53.024;6.596;2022-11-23T05:44:52;34.25;;;19.00;;
52962;SDS011;38827;53.024;6.596;2022-11-23T05:47:17;28.92;;;17.90;;
52962;SDS011;38827;53.024;6.596;2022-11-23T05:49:43;26.35;;;16.90;;
52962;SDS011;38827;53.024;6.596;2022-11-23T05:52:09;29.77;;;18.60;;
52962;SDS011;38827;53.024;6.596;2022-11-23T05:54:34;29.40;;;17.98;;
52962;SDS011;38827;53.024;6.596;2022-11-23T05:57:00;29.50;;;17.80;;
52962;SDS011;38827;53.024;6.596;2022-11-23T05:59:25;28.98;;;16.77;;
52962;SDS011;38827;53.024;6.596;2022-11-23T06:01:51;28.95;;;17.35;;
52962;SDS011;38827;53.024;6.596;2022-11-23T06:04:17;31.15;;;16.80;;
52962;SDS011;38827;53.024;6.596;2022-11-23T06:06:42;27.15;;;15.20;;
52962;SDS011;38827;53.024;6.596;2022-11-23T06:09:08;25.33;;;16.23;;
52962;SDS011;38827;53.024;6.596;2022-11-23T06:11:34;22.25;;;15.27;;
52962;SDS011;38827;53.024;6.596;2022-11-23T06:14:02;28.92;;;15.35;;
52962;SDS011;38827;53.024;6.596;2022-11-23T06:16:27;24.30;;;15.07;;
52962;SDS011;38827;53.024;6.596;2022-11-23T06:18:53;22.90;;;14.63;;
52962;SDS011;38827;53.024;6.596;2022-11-23T06:21:19;26.45;;;15.50;;
52962;SDS011;38827;53.024;6.596;2022-11-23T06:23:47;23.95;;;13.82;;
52962;SDS011;38827;53.024;6.596;2022-11-23T06:26:13;26.50;;;14.57;;
52962;SDS011;38827;53.024;6.596;2022-11-23T06:28:39;21.48;;;14.07;;
52962;SDS011;38827;53.024;6.596;2022-11-23T06:31:06;23.80;;;13.43;;
52962;SDS011;38827;53.024;6.596;2022-11-23T06:33:33;23.27;;;13.52;;
52962;SDS011;38827;53.024;6.596;2022-11-23T06:35:59;22.27;;;13.87;;
52962;SDS011;38827;53.024;6.596;2022-11-23T06:38:26;20.83;;;12.85;;
52962;SDS011;38827;53.024;6.596;2022-11-23T06:40:52;22.80;;;12.65;;
52962;SDS011;38827;53.024;6.596;2022-11-23T06:43:17;28.10;;;13.55;;
52962;SDS011;38827;53.024;6.596;2022-11-23T06:45:43;21.27;;;12.82;;
52962;SDS011;38827;53.024;6.596;2022-11-23T06:48:09;27.63;;;12.82;;
52962;SDS011;38827;53.024;6.596;2022-11-23T06:50:45;19.02;;;11.43;;
52962;SDS011;38827;53.024;6.596;2022-11-23T06:53:11;21.70;;;11.68;;
52962;SDS011;38827;53.024;6.596;2022-11-23T06:55:37;21.77;;;12.00;;
52962;SDS011;38827;53.024;6.596;2022-11-23T06:58:03;18.77;;;10.52;;
52962;SDS011;38827;53.024;6.596;2022-11-23T07:00:30;20.38;;;10.70;;
52962;SDS011;38827;53.024;6.596;2022-11-23T07:02:56;25.45;;;11.63;;
52962;SDS011;38827;53.024;6.596;2022-11-23T07:05:22;16.13;;;10.07;;
52962;SDS011;38827;53.024;6.596;2022-11-23T07:07:52;17.52;;;10.00;;
52962;SDS011;38827;53.024;6.596;2022-11-23T07:10:18;21.75;;;10.63;;
52962;SDS011;38827;53.024;6.596;2022-11-23T07:12:44;17.13;;;9.45;;
52962;SDS011;38827;53.024;6.596;2022-11-23T07:15:20;19.98;;;9.50;;
52962;SDS011;38827;53.024;6.596;2022-11-23T07:17:45;18.80;;;9.02;;
52962;SDS011;38827;53.024;6.596;2022-11-23T07:20:11;17.70;;;10.18;;
52962;SDS011;38827;53.024;6.596;2022-11-23T07:22:40;15.57;;;8.93;;
52962;SDS011;38827;53.024;6.596;2022-11-23T07:25:07;15.30;;;8.55;;
52962;SDS011;38827;53.024;6.596;2022-11-23T07:27:33;19.80;;;8.17;;
52962;SDS011;38827;53.024;6.596;2022-11-23T07:29:59;14.07;;;7.60;;
52962;SDS011;38827;53.024;6.596;2022-11-23T07:32:24;18.15;;;7.70;;
52962;SDS011;38827;53.024;6.596;2022-11-23T07:34:50;15.20;;;7.65;;
52962;SDS011;38827;53.024;6.596;2022-11-23T07:37:16;16.83;;;7.63;;
52962;SDS011;38827;53.024;6.596;2022-11-23T07:39:41;19.88;;;7.82;;
52962;SDS011;38827;53.024;6.596;2022-11-23T07:42:08;20.27;;;7.90;;
52962;SDS011;38827;53.024;6.596;2022-11-23T07:44:33;16.65;;;7.28;;
52962;SDS011;38827;53.024;6.596;2022-11-23T07:46:59;12.80;;;7.00;;
52962;SDS011;38827;53.024;6.596;2022-11-23T07:49:25;13.48;;;6.82;;
52962;SDS011;38827;53.024;6.596;2022-11-23T07:51:50;13.88;;;6.80;;
52962;SDS011;38827;53.024;6.596;2022-11-23T07:54:17;13.25;;;7.72;;
52962;SDS011;38827;53.024;6.596;2022-11-23T07:56:46;21.50;;;6.70;;
52962;SDS011;38827;53.024;6.596;2022-11-23T07:59:12;15.32;;;6.78;;
52962;SDS011;38827;53.024;6.596;2022-11-23T08:01:37;15.23;;;6.07;;
52962;SDS011;38827;53.024;6.596;2022-11-23T08:04:03;17.58;;;6.30;;
52962;SDS011;38827;53.024;6.596;2022-11-23T08:06:29;16.88;;;6.55;;
52962;SDS011;38827;53.024;6.596;2022-11-23T08:08:55;13.87;;;6.50;;
52962;SDS011;38827;53.024;6.596;2022-11-23T08:11:21;17.90;;;6.40;;
52962;SDS011;38827;53.024;6.596;2022-11-23T08:13:47;15.10;;;6.25;;
52962;SDS011;38827;53.024;6.596;2022-11-23T08:16:12;13.93;;;6.38;;
52962;SDS011;38827;53.024;6.596;2022-11-23T08:18:38;15.80;;;6.18;;
52962;SDS011;38827;53.024;6.596;2022-11-23T08:21:05;13.88;;;6.32;;
52962;SDS011;38827;53.024;6.596;2022-11-23T08:23:31;13.30;;;5.95;;
52962;SDS011;38827;53.024;6.596;2022-11-23T08:25:56;16.25;;;6.65;;
52962;SDS011;38827;53.024;6.596;2022-11-23T08:28:22;18.45;;;6.53;;
52962;SDS011;38827;53.024;6.596;2022-11-23T08:30:48;18.08;;;6.50;;
52962;SDS011;38827;53.024;6.596;2022-11-23T08:33:14;16.67;;;5.22;;
52962;SDS011;38827;53.024;6.596;2022-11-23T08:35:40;15.02;;;5.90;;
52962;SDS011;38827;53.024;6.596;2022-11-23T08:38:07;14.75;;;6.43;;
52962;SDS011;38827;53.024;6.596;2022-11-23T08:42:59;17.70;;;5.55;;
52962;SDS011;38827;53.024;6.596;2022-11-23T08:45:25;15.30;;;6.28;;
52962;SDS011;38827;53.024;6.596;2022-11-23T08:47:51;14.90;;;6.10;;
52962;SDS011;38827;53.024;6.596;2022-11-23T08:50:17;15.55;;;6.00;;
52962;SDS011;38827;53.024;6.596;2022-11-23T08:52:43;14.25;;;6.45;;
52962;SDS011;38827;53.024;6.596;2022-11-23T08:55:09;13.40;;;5.10;;
52962;SDS011;38827;53.024;6.596;2022-11-23T08:57:35;17.92;;;5.75;;
52962;SDS011;38827;53.024;6.596;2022-11-23T09:00:00;15.25;;;5.60;;
52962;SDS011;38827;53.024;6.596;2022-11-23T09:02:27;15.10;;;5.30;;
52962;SDS011;38827;53.024;6.596;2022-11-23T09:04:52;12.95;;;5.10;;
52962;SDS011;38827;53.024;6.596;2022-11-23T09:07:18;17.35;;;6.30;;
52962;SDS011;38827;53.024;6.596;2022-11-23T09:09:43;13.07;;;4.55;;
52962;SDS011;38827;53.024;6.596;2022-11-23T09:12:09;16.80;;;5.00;;
52962;SDS011;38827;53.024;6.596;2022-11-23T09:14:35;10.32;;;5.00;;
52962;SDS011;38827;53.024;6.596;2022-11-23T09:17:01;14.85;;;4.85;;
52962;SDS011;38827;53.024;6.596;2022-11-23T09:19:27;15.10;;;5.00;;
52962;SDS011;38827;53.024;6.596;2022-11-23T09:21:53;13.60;;;4.38;;
52962;SDS011;38827;53.024;6.596;2022-11-23T09:24:18;12.05;;;4.43;;
52962;SDS011;38827;53.024;6.596;2022-11-23T09:26:44;17.13;;;5.03;;
52962;SDS011;38827;53.024;6.596;2022-11-23T09:29:10;13.98;;;4.68;;
52962;SDS011;38827;53.024;6.596;2022-11-23T09:31:35;13.75;;;4.95;;
52962;SDS011;38827;53.024;6.596;2022-11-23T09:34:01;16.50;;;5.05;;
52962;SDS011;38827;53.024;6.596;2022-11-23T09:36:27;16.92;;;5.15;;
52962;SDS011;38827;53.024;6.596;2022-11-23T09:38:56;14.23;;;4.05;;
52962;SDS011;38827;53.024;6.596;2022-11-23T09:49:27;16.83;;;4.75;;
52962;SDS011;38827;53.024;6.596;2022-11-23T09:52:06;14.50;;;4.47;;
52962;SDS011;38827;53.024;6.596;2022-11-23T09:54:38;15.98;;;5.35;;
52962;SDS011;38827;53.024;6.596;2022-11-23T09:57:05;13.13;;;4.22;;
52962;SDS011;38827;53.024;6.596;2022-11-23T09:59:44;16.65;;;4.70;;
52962;SDS011;38827;53.024;6.596;2022-11-23T10:02:22;10.93;;;4.15;;
52962;SDS011;38827;53.024;6.596;2022-11-23T10:04:50;17.13;;;4.68;;
52962;SDS011;38827;53.024;6.596;2022-11-23T10:15:11;15.43;;;4.60;;
52962;SDS011;38827;53.024;6.596;2022-11-23T10:26:03;16.02;;;3.90;;
52962;SDS011;38827;53.024;6.596;2022-11-23T10:28:29;11.93;;;4.05;;
52962;SDS011;38827;53.024;6.596;2022-11-23T10:31:15;14.18;;;3.60;;
52962;SDS011;38827;53.024;6.596;2022-11-23T10:36:28;19.10;;;4.30;;
52962;SDS011;38827;53.024;6.596;2022-11-23T10:38:57;14.23;;;3.42;;
52962;SDS011;38827;53.024;6.596;2022-11-23T10:41:24;12.00;;;3.45;;
52962;SDS011;38827;53.024;6.596;2022-11-23T10:46:58;13.50;;;3.25;;
52962;SDS011;38827;53.024;6.596;2022-11-23T10:52:03;15.10;;;3.63;;
52962;SDS011;38827;53.024;6.596;2022-11-23T10:54:53;14.45;;;3.45;;
52962;SDS011;38827;53.024;6.596;2022-11-23T10:57:31;12.80;;;3.15;;
52962;SDS011;38827;53.024;6.596;2022-11-23T11:02:38;13.88;;;3.72;;
52962;SDS011;38827;53.024;6.596;2022-11-23T11:08:16;18.33;;;4.50;;
52962;SDS011;38827;53.024;6.596;2022-11-23T11:16:24;20.02;;;4.00;;
52962;SDS011;38827;53.024;6.596;2022-11-23T11:18:55;15.13;;;3.55;;
52962;SDS011;38827;53.024;6.596;2022-11-23T11:21:33;13.70;;;2.65;;
52962;SDS011;38827;53.024;6.596;2022-11-23T11:24:05;13.75;;;3.45;;
52962;SDS011;38827;53.024;6.596;2022-11-23T11:26:46;12.75;;;3.08;;
52962;SDS011;38827;53.024;6.596;2022-11-23T11:29:28;13.52;;;2.90;;
52962;SDS011;38827;53.024;6.596;2022-11-23T11:37:18;15.82;;;3.00;;
52962;SDS011;38827;53.024;6.596;2022-11-23T11:40:06;13.43;;;3.42;;
52962;SDS011;38827;53.024;6.596;2022-11-23T11:42:39;12.80;;;2.70;;
52962;SDS011;38827;53.024;6.596;2022-11-23T11:45:15;15.55;;;3.00;;
52962;SDS011;38827;53.024;6.596;2022-11-23T11:48:02;11.98;;;3.25;;
52962;SDS011;38827;53.024;6.596;2022-11-23T11:50:51;14.23;;;3.33;;
52962;SDS011;38827;53.024;6.596;2022-11-23T12:10:59;8.75;;;2.28;;
52962;SDS011;38827;53.024;6.596;2022-11-23T12:13:34;12.52;;;3.03;;
52962;SDS011;38827;53.024;6.596;2022-11-23T12:42:48;11.13;;;2.28;;
52962;SDS011;38827;53.024;6.596;2022-11-23T12:52:53;9.95;;;2.05;;
52962;SDS011;38827;53.024;6.596;2022-11-23T12:58:28;10.75;;;1.77;;
52962;SDS011;38827;53.024;6.596;2022-11-23T13:00:56;11.60;;;2.08;;
52962;SDS011;38827;53.024;6.596;2022-11-23T13:03:35;10.38;;;2.08;;
52962;SDS011;38827;53.024;6.596;2022-11-23T13:21:26;12.25;;;2.22;;
52962;SDS011;38827;53.024;6.596;2022-11-23T13:24:23;9.55;;;2.30;;
52962;SDS011;38827;53.024;6.596;2022-11-23T13:35:02;13.77;;;1.77;;
52962;SDS011;38827;53.024;6.596;2022-11-23T13:40:28;9.65;;;1.75;;
52962;SDS011;38827;53.024;6.596;2022-11-23T13:42:56;12.20;;;2.80;;
52962;SDS011;38827;53.024;6.596;2022-11-23T13:45:29;11.57;;;1.70;;
52962;SDS011;38827;53.024;6.596;2022-11-23T13:53:31;8.15;;;1.70;;
52962;SDS011;38827;53.024;6.596;2022-11-23T13:58:51;8.40;;;2.08;;
52962;SDS011;38827;53.024;6.596;2022-11-23T14:04:22;15.50;;;3.08;;
52962;SDS011;38827;53.024;6.596;2022-11-23T14:06:50;10.73;;;2.10;;
52962;SDS011;38827;53.024;6.596;2022-11-23T14:34:14;7.78;;;1.67;;
52962;SDS011;38827;53.024;6.596;2022-11-23T14:42:26;7.30;;;1.80;;
52962;SDS011;38827;53.024;6.596;2022-11-23T14:44:53;7.03;;;1.70;;
52962;SDS011;38827;53.024;6.596;2022-11-23T14:47:25;9.38;;;2.28;;
52962;SDS011;38827;53.024;6.596;2022-11-23T14:49:53;7.50;;;1.70;;
52962;SDS011;38827;53.024;6.596;2022-11-23T14:52:20;18.92;;;8.43;;
52962;SDS011;38827;53.024;6.596;2022-11-23T14:54:54;11.55;;;5.30;;
52962;SDS011;38827;53.024;6.596;2022-11-23T14:57:22;7.80;;;2.50;;
52962;SDS011;38827;53.024;6.596;2022-11-23T14:59:53;10.63;;;1.95;;
52962;SDS011;38827;53.024;6.596;2022-11-23T15:02:24;10.02;;;2.15;;
52962;SDS011;38827;53.024;6.596;2022-11-23T15:05:17;9.10;;;2.45;;
52962;SDS011;38827;53.024;6.596;2022-11-23T15:13:20;6.63;;;1.75;;
52962;SDS011;38827;53.024;6.596;2022-11-23T15:15:52;9.68;;;2.30;;
52962;SDS011;38827;53.024;6.596;2022-11-23T15:18:32;8.20;;;2.15;;
52962;SDS011;38827;53.024;6.596;2022-11-23T15:21:02;6.70;;;1.58;;
52962;SDS011;38827;53.024;6.596;2022-11-23T15:23:45;7.35;;;1.92;;
52962;SDS011;38827;53.024;6.596;2022-11-23T15:26:17;7.57;;;1.67;;
52962;SDS011;38827;53.024;6.596;2022-11-23T15:28:48;8.40;;;1.73;;
52962;SDS011;38827;53.024;6.596;2022-11-23T15:33:50;7.00;;;2.17;;
52962;SDS011;38827;53.024;6.596;2022-11-23T15:36:27;8.38;;;1.77;;
52962;SDS011;38827;53.024;6.596;2022-11-23T15:38:55;9.18;;;1.95;;
52962;SDS011;38827;53.024;6.596;2022-11-23T15:41:22;7.68;;;3.58;;
52962;SDS011;38827;53.024;6.596;2022-11-23T15:43:50;9.15;;;2.00;;
52962;SDS011;38827;53.024;6.596;2022-11-23T15:46:20;7.82;;;1.70;;
52962;SDS011;38827;53.024;6.596;2022-11-23T15:48:49;7.18;;;1.77;;
52962;SDS011;38827;53.024;6.596;2022-11-23T15:51:20;8.63;;;1.83;;
52962;SDS011;38827;53.024;6.596;2022-11-23T15:53:48;7.18;;;1.90;;
52962;SDS011;38827;53.024;6.596;2022-11-23T15:56:22;12.43;;;4.63;;
52962;SDS011;38827;53.024;6.596;2022-11-23T15:58:52;9.52;;;2.15;;
52962;SDS011;38827;53.024;6.596;2022-11-23T16:03:52;8.27;;;2.27;;
52962;SDS011;38827;53.024;6.596;2022-11-23T16:08:56;9.20;;;1.90;;
52962;SDS011;38827;53.024;6.596;2022-11-23T16:11:26;7.90;;;2.10;;
52962;SDS011;38827;53.024;6.596;2022-11-23T16:16:46;7.85;;;1.85;;
52962;SDS011;38827;53.024;6.596;2022-11-23T16:19:32;6.82;;;2.40;;
52962;SDS011;38827;53.024;6.596;2022-11-23T16:21:59;9.30;;;2.15;;
52962;SDS011;38827;53.024;6.596;2022-11-23T16:24:30;8.98;;;2.35;;
52962;SDS011;38827;53.024;6.596;2022-11-23T16:26:58;6.60;;;1.77;;
52962;SDS011;38827;53.024;6.596;2022-11-23T16:29:24;10.27;;;1.92;;
52962;SDS011;38827;53.024;6.596;2022-11-23T16:31:54;6.95;;;1.88;;
52962;SDS011;38827;53.024;6.596;2022-11-23T16:34:24;7.68;;;2.30;;
52962;SDS011;38827;53.024;6.596;2022-11-23T16:36:54;5.07;;;1.92;;
52962;SDS011;38827;53.024;6.596;2022-11-23T16:39:20;8.93;;;2.10;;
52962;SDS011;38827;53.024;6.596;2022-11-23T16:41:48;8.45;;;2.00;;
52962;SDS011;38827;53.024;6.596;2022-11-23T16:44:14;8.18;;;2.25;;
52962;SDS011;38827;53.024;6.596;2022-11-23T16:50:02;8.30;;;2.22;;
52962;SDS011;38827;53.024;6.596;2022-11-23T16:52:30;9.30;;;1.98;;
52962;SDS011;38827;53.024;6.596;2022-11-23T16:54:55;6.85;;;1.95;;
52962;SDS011;38827;53.024;6.596;2022-11-23T16:57:23;6.95;;;1.77;;
52962;SDS011;38827;53.024;6.596;2022-11-23T16:59:53;10.02;;;2.47;;
52962;SDS011;38827;53.024;6.596;2022-11-23T17:02:19;8.20;;;1.67;;
52962;SDS011;38827;53.024;6.596;2022-11-23T17:04:44;6.72;;;1.85;;
52962;SDS011;38827;53.024;6.596;2022-11-23T17:07:10;5.18;;;1.70;;
52962;SDS011;38827;53.024;6.596;2022-11-23T17:09:36;6.80;;;1.90;;
52962;SDS011;38827;53.024;6.596;2022-11-23T17:12:02;8.30;;;2.38;;
52962;SDS011;38827;53.024;6.596;2022-11-23T17:14:31;6.80;;;2.00;;
52962;SDS011;38827;53.024;6.596;2022-11-23T17:17:02;11.93;;;2.53;;
52962;SDS011;38827;53.024;6.596;2022-11-23T17:19:27;9.77;;;2.30;;
52962;SDS011;38827;53.024;6.596;2022-11-23T17:21:53;9.30;;;2.53;;
52962;SDS011;38827;53.024;6.596;2022-11-23T17:24:19;11.02;;;2.88;;
52962;SDS011;38827;53.024;6.596;2022-11-23T17:26:45;6.22;;;2.42;;
52962;SDS011;38827;53.024;6.596;2022-11-23T17:29:18;6.30;;;2.20;;
52962;SDS011;38827;53.024;6.596;2022-11-23T17:31:48;7.63;;;2.80;;
52962;SDS011;38827;53.024;6.596;2022-11-23T17:36:43;9.32;;;2.45;;
52962;SDS011;38827;53.024;6.596;2022-11-23T17:39:14;9.82;;;3.40;;
52962;SDS011;38827;53.024;6.596;2022-11-23T17:41:43;7.20;;;3.17;;
52962;SDS011;38827;53.024;6.596;2022-11-23T17:44:09;10.43;;;3.10;;
52962;SDS011;38827;53.024;6.596;2022-11-23T17:46:35;14.65;;;4.07;;
52962;SDS011;38827;53.024;6.596;2022-11-23T17:49:00;11.35;;;2.78;;
52962;SDS011;38827;53.024;6.596;2022-11-23T17:51:26;8.32;;;2.40;;
52962;SDS011;38827;53.024;6.596;2022-11-23T17:53:53;9.95;;;2.72;;
52962;SDS011;38827;53.024;6.596;2022-11-23T17:56:19;7.55;;;2.75;;
52962;SDS011;38827;53.024;6.596;2022-11-23T17:58:46;8.70;;;2.58;;
52962;SDS011;38827;53.024;6.596;2022-11-23T18:01:13;8.32;;;3.10;;
52962;SDS011;38827;53.024;6.596;2022-11-23T18:03:41;13.32;;;2.92;;
52962;SDS011;38827;53.024;6.596;2022-11-23T18:06:13;10.77;;;3.27;;
52962;SDS011;38827;53.024;6.596;2022-11-23T18:08:44;10.50;;;3.13;;
52962;SDS011;38827;53.024;6.596;2022-11-23T18:11:11;9.75;;;2.90;;
52962;SDS011;38827;53.024;6.596;2022-11-23T18:16:04;11.90;;;2.53;;
52962;SDS011;38827;53.024;6.596;2022-11-23T18:18:31;7.72;;;2.67;;
52962;SDS011;38827;53.024;6.596;2022-11-23T18:20:57;7.50;;;2.65;;
52962;SDS011;38827;53.024;6.596;2022-11-23T18:23:40;11.50;;;3.05;;
52962;SDS011;38827;53.024;6.596;2022-11-23T18:26:20;9.63;;;2.88;;
52962;SDS011;38827;53.024;6.596;2022-11-23T18:28:47;6.43;;;2.72;;
52962;SDS011;38827;53.024;6.596;2022-11-23T18:31:13;7.77;;;2.90;;
52962;SDS011;38827;53.024;6.596;2022-11-23T18:33:40;5.97;;;2.97;;
52962;SDS011;38827;53.024;6.596;2022-11-23T18:36:06;7.63;;;3.35;;
52962;SDS011;38827;53.024;6.596;2022-11-23T18:38:32;11.07;;;2.97;;
52962;SDS011;38827;53.024;6.596;2022-11-23T18:40:58;11.60;;;3.35;;
52962;SDS011;38827;53.024;6.596;2022-11-23T18:43:24;8.85;;;3.10;;
52962;SDS011;38827;53.024;6.596;2022-11-23T18:45:50;13.48;;;3.78;;
52962;SDS011;38827;53.024;6.596;2022-11-23T18:48:16;9.18;;;3.50;;
52962;SDS011;38827;53.024;6.596;2022-11-23T18:50:42;11.02;;;4.60;;
52962;SDS011;38827;53.024;6.596;2022-11-23T18:53:08;9.27;;;4.18;;
52962;SDS011;38827;53.024;6.596;2022-11-23T18:55:36;8.85;;;3.72;;
52962;SDS011;38827;53.024;6.596;2022-11-23T18:58:03;7.75;;;4.13;;
52962;SDS011;38827;53.024;6.596;2022-11-23T19:00:29;8.52;;;5.07;;
52962;SDS011;38827;53.024;6.596;2022-11-23T19:02:56;11.02;;;4.85;;
52962;SDS011;38827;53.024;6.596;2022-11-23T19:05:24;11.95;;;4.60;;
52962;SDS011;38827;53.024;6.596;2022-11-23T19:07:51;10.55;;;4.90;;
52962;SDS011;38827;53.024;6.596;2022-11-23T19:10:18;13.35;;;5.63;;
52962;SDS011;38827;53.024;6.596;2022-11-23T19:12:44;9.15;;;4.75;;